sensor_id;sensor_type;location;lat;lon;timestamp;P1;durP1;ratioP1;P2;durP2;ratioP2
70459;SDS011;57920;54.796;9.430;2022-09-14T00:00:48;5.93;;;3.00;;
70459;SDS011;57920;54.796;9.430;2022-09-14T00:03:14;4.13;;;2.33;;
70459;SDS011;57920;54.796;9.430;2022-09-14T00:05:40;7.77;;;2.70;;
70459;SDS011;57920;54.796;9.430;2022-09-14T00:08:06;5.17;;;2.30;;
70459;SDS011;57920;54.796;9.430;2022-09-14T00:10:32;5.77;;;2.63;;
70459;SDS011;57920;54.796;9.430;2022-09-14T00:13:01;6.37;;;2.73;;
70459;SDS011;57920;54.796;9.430;2022-09-14T00:15:27;3.93;;;2.50;;
70459;SDS011;57920;54.796;9.430;2022-09-14T00:17:53;3.80;;;2.70;;
70459;SDS011;57920;54.796;9.430;2022-09-14T00:20:18;4.27;;;2.60;;
70459;SDS011;57920;54.796;9.430;2022-09-14T00:22:44;5.57;;;2.60;;
70459;SDS011;57920;54.796;9.430;2022-09-14T00:25:10;4.10;;;2.00;;
70459;SDS011;57920;54.796;9.430;2022-09-14T00:27:35;3.67;;;2.47;;
70459;SDS011;57920;54.796;9.430;2022-09-14T00:30:01;4.57;;;1.93;;
70459;SDS011;57920;54.796;9.430;2022-09-14T00:32:26;3.30;;;2.00;;
70459;SDS011;57920;54.796;9.430;2022-09-14T00:34:52;4.83;;;2.50;;
70459;SDS011;57920;54.796;9.430;2022-09-14T00:37:17;4.47;;;2.67;;
70459;SDS011;57920;54.796;9.430;2022-09-14T00:39:43;3.27;;;2.03;;
70459;SDS011;57920;54.796;9.430;2022-09-14T00:42:09;5.03;;;2.60;;
70459;SDS011;57920;54.796;9.430;2022-09-14T00:47:05;5.87;;;2.43;;
70459;SDS011;57920;54.796;9.430;2022-09-14T00:49:37;3.73;;;2.13;;
70459;SDS011;57920;54.796;9.430;2022-09-14T00:52:27;3.90;;;2.20;;
70459;SDS011;57920;54.796;9.430;2022-09-14T00:54:57;3.20;;;1.90;;
70459;SDS011;57920;54.796;9.430;2022-09-14T00:57:26;4.67;;;2.80;;
70459;SDS011;57920;54.796;9.430;2022-09-14T00:59:54;4.23;;;2.30;;
70459;SDS011;57920;54.796;9.430;2022-09-14T01:02:21;2.07;;;1.63;;
70459;SDS011;57920;54.796;9.430;2022-09-14T01:04:48;3.17;;;2.03;;
70459;SDS011;57920;54.796;9.430;2022-09-14T01:12:46;2.47;;;1.40;;
70459;SDS011;57920;54.796;9.430;2022-09-14T01:23:25;3.67;;;2.33;;
70459;SDS011;57920;54.796;9.430;2022-09-14T01:31:29;4.87;;;2.67;;
70459;SDS011;57920;54.796;9.430;2022-09-14T01:34:57;3.03;;;1.77;;
70459;SDS011;57920;54.796;9.430;2022-09-14T01:37:04;3.77;;;2.00;;
70459;SDS011;57920;54.796;9.430;2022-09-14T01:39:55;2.50;;;1.70;;
70459;SDS011;57920;54.796;9.430;2022-09-14T01:42:25;3.80;;;1.90;;
70459;SDS011;57920;54.796;9.430;2022-09-14T01:44:54;2.50;;;1.53;;
70459;SDS011;57920;54.796;9.430;2022-09-14T01:47:25;4.63;;;2.30;;
70459;SDS011;57920;54.796;9.430;2022-09-14T01:50:05;2.87;;;2.07;;
70459;SDS011;57920;54.796;9.430;2022-09-14T01:52:46;5.10;;;2.20;;
70459;SDS011;57920;54.796;9.430;2022-09-14T01:55:39;2.83;;;1.83;;
70459;SDS011;57920;54.796;9.430;2022-09-14T01:58:15;2.67;;;1.50;;
70459;SDS011;57920;54.796;9.430;2022-09-14T02:00:46;2.63;;;1.87;;
70459;SDS011;57920;54.796;9.430;2022-09-14T02:03:18;5.07;;;2.10;;
70459;SDS011;57920;54.796;9.430;2022-09-14T02:05:51;3.90;;;2.20;;
70459;SDS011;57920;54.796;9.430;2022-09-14T02:08:27;5.93;;;2.27;;
70459;SDS011;57920;54.796;9.430;2022-09-14T02:10:55;4.10;;;2.13;;
70459;SDS011;57920;54.796;9.430;2022-09-14T02:13:22;3.77;;;2.03;;
70459;SDS011;57920;54.796;9.430;2022-09-14T02:15:48;3.90;;;1.87;;
70459;SDS011;57920;54.796;9.430;2022-09-14T02:18:14;3.10;;;1.50;;
70459;SDS011;57920;54.796;9.430;2022-09-14T02:20:41;3.17;;;1.97;;
70459;SDS011;57920;54.796;9.430;2022-09-14T02:23:14;4.43;;;2.30;;
70459;SDS011;57920;54.796;9.430;2022-09-14T02:25:41;2.97;;;1.60;;
70459;SDS011;57920;54.796;9.430;2022-09-14T02:28:06;3.37;;;1.83;;
70459;SDS011;57920;54.796;9.430;2022-09-14T02:30:44;5.47;;;1.80;;
70459;SDS011;57920;54.796;9.430;2022-09-14T02:39:39;2.17;;;1.47;;
70459;SDS011;57920;54.796;9.430;2022-09-14T02:42:15;3.83;;;1.40;;
70459;SDS011;57920;54.796;9.430;2022-09-14T02:44:43;5.40;;;1.57;;
70459;SDS011;57920;54.796;9.430;2022-09-14T02:47:21;2.07;;;1.17;;
70459;SDS011;57920;54.796;9.430;2022-09-14T02:49:59;4.10;;;2.10;;
70459;SDS011;57920;54.796;9.430;2022-09-14T02:55:14;3.37;;;1.90;;
70459;SDS011;57920;54.796;9.430;2022-09-14T02:58:03;2.60;;;1.50;;
70459;SDS011;57920;54.796;9.430;2022-09-14T03:00:38;3.70;;;1.60;;
70459;SDS011;57920;54.796;9.430;2022-09-14T03:03:10;4.57;;;1.40;;
70459;SDS011;57920;54.796;9.430;2022-09-14T03:05:40;3.87;;;2.10;;
70459;SDS011;57920;54.796;9.430;2022-09-14T03:08:07;2.83;;;1.50;;
70459;SDS011;57920;54.796;9.430;2022-09-14T03:10:34;3.47;;;1.70;;
70459;SDS011;57920;54.796;9.430;2022-09-14T03:13:00;1.87;;;1.50;;
70459;SDS011;57920;54.796;9.430;2022-09-14T03:15:26;3.80;;;1.80;;
70459;SDS011;57920;54.796;9.430;2022-09-14T03:17:52;2.50;;;1.50;;
70459;SDS011;57920;54.796;9.430;2022-09-14T03:20:20;2.33;;;1.13;;
70459;SDS011;57920;54.796;9.430;2022-09-14T03:22:50;5.20;;;1.90;;
70459;SDS011;57920;54.796;9.430;2022-09-14T03:25:16;2.43;;;1.80;;
70459;SDS011;57920;54.796;9.430;2022-09-14T03:27:50;2.97;;;1.43;;
70459;SDS011;57920;54.796;9.430;2022-09-14T03:30:17;5.07;;;1.90;;
70459;SDS011;57920;54.796;9.430;2022-09-14T03:32:43;3.17;;;1.50;;
70459;SDS011;57920;54.796;9.430;2022-09-14T03:35:08;2.20;;;1.40;;
70459;SDS011;57920;54.796;9.430;2022-09-14T03:37:38;1.90;;;1.40;;
70459;SDS011;57920;54.796;9.430;2022-09-14T03:40:05;3.17;;;1.73;;
70459;SDS011;57920;54.796;9.430;2022-09-14T03:42:32;2.43;;;1.33;;
70459;SDS011;57920;54.796;9.430;2022-09-14T03:44:58;2.00;;;1.50;;
70459;SDS011;57920;54.796;9.430;2022-09-14T03:47:23;3.07;;;1.37;;
70459;SDS011;57920;54.796;9.430;2022-09-14T03:49:50;3.90;;;1.63;;
70459;SDS011;57920;54.796;9.430;2022-09-14T03:52:16;2.70;;;1.43;;
70459;SDS011;57920;54.796;9.430;2022-09-14T03:54:42;2.13;;;1.40;;
70459;SDS011;57920;54.796;9.430;2022-09-14T03:57:08;2.53;;;1.17;;
70459;SDS011;57920;54.796;9.430;2022-09-14T03:59:34;4.43;;;1.40;;
70459;SDS011;57920;54.796;9.430;2022-09-14T04:02:00;3.10;;;1.63;;
70459;SDS011;57920;54.796;9.430;2022-09-14T04:04:26;2.77;;;1.70;;
70459;SDS011;57920;54.796;9.430;2022-09-14T04:06:52;2.47;;;1.30;;
70459;SDS011;57920;54.796;9.430;2022-09-14T04:09:18;4.07;;;1.50;;
70459;SDS011;57920;54.796;9.430;2022-09-14T04:11:45;2.87;;;1.23;;
70459;SDS011;57920;54.796;9.430;2022-09-14T04:14:11;1.57;;;1.20;;
70459;SDS011;57920;54.796;9.430;2022-09-14T04:16:37;3.50;;;1.30;;
70459;SDS011;57920;54.796;9.430;2022-09-14T04:19:03;2.70;;;1.37;;
70459;SDS011;57920;54.796;9.430;2022-09-14T04:21:29;3.23;;;1.20;;
70459;SDS011;57920;54.796;9.430;2022-09-14T04:23:55;3.90;;;1.30;;
70459;SDS011;57920;54.796;9.430;2022-09-14T04:26:22;2.50;;;1.70;;
70459;SDS011;57920;54.796;9.430;2022-09-14T04:28:50;2.23;;;1.43;;
70459;SDS011;57920;54.796;9.430;2022-09-14T04:31:15;4.30;;;1.30;;
70459;SDS011;57920;54.796;9.430;2022-09-14T04:33:42;2.50;;;1.53;;
70459;SDS011;57920;54.796;9.430;2022-09-14T04:38:56;2.30;;;1.27;;
70459;SDS011;57920;54.796;9.430;2022-09-14T04:41:24;1.73;;;1.10;;
70459;SDS011;57920;54.796;9.430;2022-09-14T04:43:50;2.43;;;1.10;;
70459;SDS011;57920;54.796;9.430;2022-09-14T04:46:19;1.73;;;1.00;;
70459;SDS011;57920;54.796;9.430;2022-09-14T04:48:46;1.60;;;1.10;;
70459;SDS011;57920;54.796;9.430;2022-09-14T04:51:13;2.90;;;1.23;;
70459;SDS011;57920;54.796;9.430;2022-09-14T04:53:43;3.70;;;1.50;;
70459;SDS011;57920;54.796;9.430;2022-09-14T04:56:10;1.20;;;0.87;;
70459;SDS011;57920;54.796;9.430;2022-09-14T04:58:38;2.83;;;1.27;;
70459;SDS011;57920;54.796;9.430;2022-09-14T05:01:17;1.60;;;1.07;;
70459;SDS011;57920;54.796;9.430;2022-09-14T05:03:45;2.03;;;1.07;;
70459;SDS011;57920;54.796;9.430;2022-09-14T05:06:11;2.90;;;1.30;;
70459;SDS011;57920;54.796;9.430;2022-09-14T05:08:40;2.63;;;1.30;;
70459;SDS011;57920;54.796;9.430;2022-09-14T05:11:06;3.33;;;1.03;;
70459;SDS011;57920;54.796;9.430;2022-09-14T05:13:33;2.23;;;1.33;;
70459;SDS011;57920;54.796;9.430;2022-09-14T05:16:06;2.57;;;0.90;;
70459;SDS011;57920;54.796;9.430;2022-09-14T05:18:33;2.23;;;1.17;;
70459;SDS011;57920;54.796;9.430;2022-09-14T05:21:05;2.53;;;0.97;;
70459;SDS011;57920;54.796;9.430;2022-09-14T05:23:32;1.70;;;0.90;;
70459;SDS011;57920;54.796;9.430;2022-09-14T05:25:59;1.40;;;1.00;;
70459;SDS011;57920;54.796;9.430;2022-09-14T05:28:25;3.13;;;1.10;;
70459;SDS011;57920;54.796;9.430;2022-09-14T05:30:51;1.93;;;1.10;;
70459;SDS011;57920;54.796;9.430;2022-09-14T05:33:17;1.57;;;1.00;;
70459;SDS011;57920;54.796;9.430;2022-09-14T05:35:43;1.97;;;1.40;;
70459;SDS011;57920;54.796;9.430;2022-09-14T05:38:09;2.33;;;1.27;;
70459;SDS011;57920;54.796;9.430;2022-09-14T05:40:35;2.33;;;1.17;;
70459;SDS011;57920;54.796;9.430;2022-09-14T05:43:00;2.30;;;1.13;;
70459;SDS011;57920;54.796;9.430;2022-09-14T05:45:26;2.67;;;1.37;;
70459;SDS011;57920;54.796;9.430;2022-09-14T05:47:52;5.17;;;1.80;;
70459;SDS011;57920;54.796;9.430;2022-09-14T05:50:17;3.67;;;1.30;;
70459;SDS011;57920;54.796;9.430;2022-09-14T05:52:43;3.77;;;1.70;;
70459;SDS011;57920;54.796;9.430;2022-09-14T05:55:08;2.73;;;1.30;;
70459;SDS011;57920;54.796;9.430;2022-09-14T05:57:34;2.37;;;1.00;;
70459;SDS011;57920;54.796;9.430;2022-09-14T06:00:00;3.03;;;2.00;;
70459;SDS011;57920;54.796;9.430;2022-09-14T06:02:25;3.67;;;1.30;;
70459;SDS011;57920;54.796;9.430;2022-09-14T06:04:51;6.40;;;1.90;;
70459;SDS011;57920;54.796;9.430;2022-09-14T06:07:16;2.03;;;1.13;;
70459;SDS011;57920;54.796;9.430;2022-09-14T06:09:42;5.40;;;1.87;;
70459;SDS011;57920;54.796;9.430;2022-09-14T06:12:08;2.80;;;1.53;;
70459;SDS011;57920;54.796;9.430;2022-09-14T06:14:33;2.53;;;1.20;;
70459;SDS011;57920;54.796;9.430;2022-09-14T06:16:59;3.93;;;1.43;;
70459;SDS011;57920;54.796;9.430;2022-09-14T06:19:25;4.30;;;1.60;;
70459;SDS011;57920;54.796;9.430;2022-09-14T06:21:51;1.60;;;1.27;;
70459;SDS011;57920;54.796;9.430;2022-09-14T06:24:16;2.63;;;1.30;;
70459;SDS011;57920;54.796;9.430;2022-09-14T06:26:42;2.30;;;1.20;;
70459;SDS011;57920;54.796;9.430;2022-09-14T06:29:07;4.50;;;1.97;;
70459;SDS011;57920;54.796;9.430;2022-09-14T06:31:33;3.80;;;1.90;;
70459;SDS011;57920;54.796;9.430;2022-09-14T06:33:58;4.70;;;2.03;;
70459;SDS011;57920;54.796;9.430;2022-09-14T06:36:30;3.93;;;1.80;;
70459;SDS011;57920;54.796;9.430;2022-09-14T06:38:57;4.60;;;2.10;;
70459;SDS011;57920;54.796;9.430;2022-09-14T06:41:24;4.53;;;1.97;;
70459;SDS011;57920;54.796;9.430;2022-09-14T06:43:54;3.83;;;1.67;;
70459;SDS011;57920;54.796;9.430;2022-09-14T06:46:22;4.47;;;1.67;;
70459;SDS011;57920;54.796;9.430;2022-09-14T06:48:51;5.20;;;1.97;;
70459;SDS011;57920;54.796;9.430;2022-09-14T06:51:23;6.83;;;1.97;;
70459;SDS011;57920;54.796;9.430;2022-09-14T06:53:49;3.43;;;1.80;;
70459;SDS011;57920;54.796;9.430;2022-09-14T06:56:16;2.83;;;1.43;;
70459;SDS011;57920;54.796;9.430;2022-09-14T06:58:42;3.83;;;1.70;;
70459;SDS011;57920;54.796;9.430;2022-09-14T07:01:09;18.00;;;3.30;;
70459;SDS011;57920;54.796;9.430;2022-09-14T07:03:37;12.77;;;2.93;;
70459;SDS011;57920;54.796;9.430;2022-09-14T07:08:52;5.40;;;2.27;;
70459;SDS011;57920;54.796;9.430;2022-09-14T07:11:21;4.63;;;1.60;;
70459;SDS011;57920;54.796;9.430;2022-09-14T07:13:50;6.97;;;2.53;;
70459;SDS011;57920;54.796;9.430;2022-09-14T07:16:18;7.07;;;3.03;;
70459;SDS011;57920;54.796;9.430;2022-09-14T07:18:44;5.80;;;2.60;;
70459;SDS011;57920;54.796;9.430;2022-09-14T07:21:11;8.40;;;2.20;;
70459;SDS011;57920;54.796;9.430;2022-09-14T07:23:40;6.33;;;2.63;;
70459;SDS011;57920;54.796;9.430;2022-09-14T07:28:34;37.67;;;15.67;;
70459;SDS011;57920;54.796;9.430;2022-09-14T07:31:00;32.07;;;12.37;;
70459;SDS011;57920;54.796;9.430;2022-09-14T07:33:27;32.10;;;12.90;;
70459;SDS011;57920;54.796;9.430;2022-09-14T07:35:53;41.97;;;16.50;;
70459;SDS011;57920;54.796;9.430;2022-09-14T07:38:19;36.87;;;14.73;;
70459;SDS011;57920;54.796;9.430;2022-09-14T07:40:45;35.70;;;15.40;;
70459;SDS011;57920;54.796;9.430;2022-09-14T07:43:11;38.40;;;16.13;;
70459;SDS011;57920;54.796;9.430;2022-09-14T07:45:36;32.17;;;13.40;;
70459;SDS011;57920;54.796;9.430;2022-09-14T07:48:03;32.33;;;13.33;;
70459;SDS011;57920;54.796;9.430;2022-09-14T07:50:29;26.73;;;11.20;;
70459;SDS011;57920;54.796;9.430;2022-09-14T07:52:55;23.90;;;8.93;;
70459;SDS011;57920;54.796;9.430;2022-09-14T07:55:21;20.50;;;11.37;;
70459;SDS011;57920;54.796;9.430;2022-09-14T07:57:46;18.63;;;8.67;;
70459;SDS011;57920;54.796;9.430;2022-09-14T08:00:12;20.70;;;7.80;;
70459;SDS011;57920;54.796;9.430;2022-09-14T08:02:39;14.60;;;7.43;;
70459;SDS011;57920;54.796;9.430;2022-09-14T08:05:05;12.27;;;5.80;;
70459;SDS011;57920;54.796;9.430;2022-09-14T08:07:31;13.63;;;6.23;;
70459;SDS011;57920;54.796;9.430;2022-09-14T08:09:56;11.57;;;5.40;;
70459;SDS011;57920;54.796;9.430;2022-09-14T08:12:22;13.63;;;6.17;;
70459;SDS011;57920;54.796;9.430;2022-09-14T08:14:48;9.40;;;5.07;;
70459;SDS011;57920;54.796;9.430;2022-09-14T08:17:16;15.17;;;5.23;;
70459;SDS011;57920;54.796;9.430;2022-09-14T08:19:41;9.77;;;3.47;;
70459;SDS011;57920;54.796;9.430;2022-09-14T08:22:07;15.73;;;4.87;;
70459;SDS011;57920;54.796;9.430;2022-09-14T08:24:33;9.67;;;4.23;;
70459;SDS011;57920;54.796;9.430;2022-09-14T08:26:58;10.70;;;4.17;;
70459;SDS011;57920;54.796;9.430;2022-09-14T08:29:24;7.73;;;4.00;;
70459;SDS011;57920;54.796;9.430;2022-09-14T08:31:50;8.30;;;3.83;;
70459;SDS011;57920;54.796;9.430;2022-09-14T08:34:17;10.67;;;3.77;;
70459;SDS011;57920;54.796;9.430;2022-09-14T08:36:44;17.73;;;4.90;;
70459;SDS011;57920;54.796;9.430;2022-09-14T08:39:11;11.17;;;3.10;;
70459;SDS011;57920;54.796;9.430;2022-09-14T08:44:21;12.90;;;4.10;;
70459;SDS011;57920;54.796;9.430;2022-09-14T08:52:24;14.77;;;3.63;;
70459;SDS011;57920;54.796;9.430;2022-09-14T09:06:12;8.47;;;3.13;;
70459;SDS011;57920;54.796;9.430;2022-09-14T09:11:15;6.33;;;2.30;;
70459;SDS011;57920;54.796;9.430;2022-09-14T09:13:43;4.63;;;2.67;;
70459;SDS011;57920;54.796;9.430;2022-09-14T09:16:12;6.10;;;2.20;;
70459;SDS011;57920;54.796;9.430;2022-09-14T09:19:01;7.57;;;2.27;;
70459;SDS011;57920;54.796;9.430;2022-09-14T09:21:31;6.30;;;2.60;;
70459;SDS011;57920;54.796;9.430;2022-09-14T09:24:11;5.03;;;2.20;;
70459;SDS011;57920;54.796;9.430;2022-09-14T09:26:45;5.13;;;2.40;;
70459;SDS011;57920;54.796;9.430;2022-09-14T09:29:10;7.37;;;2.30;;
70459;SDS011;57920;54.796;9.430;2022-09-14T09:31:40;6.03;;;2.27;;
70459;SDS011;57920;54.796;9.430;2022-09-14T09:34:12;5.47;;;2.60;;
70459;SDS011;57920;54.796;9.430;2022-09-14T09:36:46;3.93;;;2.10;;
70459;SDS011;57920;54.796;9.430;2022-09-14T09:39:13;4.63;;;2.30;;
70459;SDS011;57920;54.796;9.430;2022-09-14T09:44:14;4.50;;;1.87;;
70459;SDS011;57920;54.796;9.430;2022-09-14T09:46:47;4.57;;;1.97;;
70459;SDS011;57920;54.796;9.430;2022-09-14T09:49:17;3.30;;;2.03;;
70459;SDS011;57920;54.796;9.430;2022-09-14T09:51:54;4.60;;;2.10;;
70459;SDS011;57920;54.796;9.430;2022-09-14T09:54:25;4.87;;;2.37;;
70459;SDS011;57920;54.796;9.430;2022-09-14T09:59:31;5.27;;;2.00;;
70459;SDS011;57920;54.796;9.430;2022-09-14T10:08:15;2.00;;;1.30;;
70459;SDS011;57920;54.796;9.430;2022-09-14T10:10:43;2.73;;;1.17;;
70459;SDS011;57920;54.796;9.430;2022-09-14T10:13:17;4.13;;;1.70;;
70459;SDS011;57920;54.796;9.430;2022-09-14T10:15:51;3.13;;;1.70;;
70459;SDS011;57920;54.796;9.430;2022-09-14T10:18:18;7.77;;;2.17;;
70459;SDS011;57920;54.796;9.430;2022-09-14T10:25:42;16.83;;;3.70;;
70459;SDS011;57920;54.796;9.430;2022-09-14T10:33:27;18.87;;;2.97;;
70459;SDS011;57920;54.796;9.430;2022-09-14T10:49:34;17.20;;;3.73;;
70459;SDS011;57920;54.796;9.430;2022-09-14T10:52:24;8.63;;;1.90;;
70459;SDS011;57920;54.796;9.430;2022-09-14T10:58:22;12.33;;;2.03;;
70459;SDS011;57920;54.796;9.430;2022-09-14T11:04:39;4.67;;;1.80;;
70459;SDS011;57920;54.796;9.430;2022-09-14T11:07:13;5.40;;;1.50;;
70459;SDS011;57920;54.796;9.430;2022-09-14T11:15:04;7.23;;;1.50;;
70459;SDS011;57920;54.796;9.430;2022-09-14T11:20:14;4.30;;;2.10;;
70459;SDS011;57920;54.796;9.430;2022-09-14T11:23:24;2.77;;;1.30;;
70459;SDS011;57920;54.796;9.430;2022-09-14T11:25:59;5.27;;;1.23;;
70459;SDS011;57920;54.796;9.430;2022-09-14T11:28:36;4.83;;;1.60;;
70459;SDS011;57920;54.796;9.430;2022-09-14T11:31:21;3.33;;;1.30;;
70459;SDS011;57920;54.796;9.430;2022-09-14T11:36:54;2.67;;;0.97;;
70459;SDS011;57920;54.796;9.430;2022-09-14T11:39:25;3.00;;;0.90;;
70459;SDS011;57920;54.796;9.430;2022-09-14T11:41:58;1.33;;;0.83;;
70459;SDS011;57920;54.796;9.430;2022-09-14T11:44:37;2.80;;;1.27;;
70459;SDS011;57920;54.796;9.430;2022-09-14T11:47:06;1.40;;;0.90;;
70459;SDS011;57920;54.796;9.430;2022-09-14T11:49:53;3.13;;;1.07;;
70459;SDS011;57920;54.796;9.430;2022-09-14T11:52:35;6.27;;;1.10;;
70459;SDS011;57920;54.796;9.430;2022-09-14T11:55:01;3.23;;;1.00;;
70459;SDS011;57920;54.796;9.430;2022-09-14T11:57:34;4.50;;;1.00;;
70459;SDS011;57920;54.796;9.430;2022-09-14T12:00:02;15.73;;;2.20;;
70459;SDS011;57920;54.796;9.430;2022-09-14T12:08:25;5.27;;;2.23;;
70459;SDS011;57920;54.796;9.430;2022-09-14T12:11:04;6.33;;;1.47;;
70459;SDS011;57920;54.796;9.430;2022-09-14T12:13:48;3.97;;;1.23;;
70459;SDS011;57920;54.796;9.430;2022-09-14T12:16:45;3.13;;;1.10;;
70459;SDS011;57920;54.796;9.430;2022-09-14T12:19:38;2.40;;;0.97;;
70459;SDS011;57920;54.796;9.430;2022-09-14T12:24:57;4.57;;;0.93;;
70459;SDS011;57920;54.796;9.430;2022-09-14T12:27:28;2.20;;;0.90;;
70459;SDS011;57920;54.796;9.430;2022-09-14T12:29:55;2.60;;;1.07;;
70459;SDS011;57920;54.796;9.430;2022-09-14T12:32:25;3.07;;;1.30;;
70459;SDS011;57920;54.796;9.430;2022-09-14T12:53:56;3.67;;;1.00;;
70459;SDS011;57920;54.796;9.430;2022-09-14T13:08:26;1.33;;;0.90;;
70459;SDS011;57920;54.796;9.430;2022-09-14T13:10:51;1.97;;;0.60;;
70459;SDS011;57920;54.796;9.430;2022-09-14T13:13:19;3.30;;;1.10;;
70459;SDS011;57920;54.796;9.430;2022-09-14T13:15:49;5.40;;;1.27;;
70459;SDS011;57920;54.796;9.430;2022-09-14T13:20:48;3.10;;;1.00;;
70459;SDS011;57920;54.796;9.430;2022-09-14T13:23:58;2.37;;;0.73;;
70459;SDS011;57920;54.796;9.430;2022-09-14T13:26:09;2.60;;;1.07;;
70459;SDS011;57920;54.796;9.430;2022-09-14T13:28:35;1.23;;;0.80;;
70459;SDS011;57920;54.796;9.430;2022-09-14T13:31:01;2.60;;;1.13;;
70459;SDS011;57920;54.796;9.430;2022-09-14T13:33:28;1.37;;;0.57;;
70459;SDS011;57920;54.796;9.430;2022-09-14T13:36:00;2.33;;;0.80;;
70459;SDS011;57920;54.796;9.430;2022-09-14T13:38:30;1.47;;;0.50;;
70459;SDS011;57920;54.796;9.430;2022-09-14T13:41:11;1.50;;;0.73;;
70459;SDS011;57920;54.796;9.430;2022-09-14T13:43:42;16.77;;;4.17;;
70459;SDS011;57920;54.796;9.430;2022-09-14T13:46:11;33.27;;;5.03;;
70459;SDS011;57920;54.796;9.430;2022-09-14T13:48:37;23.57;;;3.93;;
70459;SDS011;57920;54.796;9.430;2022-09-14T13:51:05;20.67;;;3.33;;
70459;SDS011;57920;54.796;9.430;2022-09-14T13:53:39;16.20;;;3.50;;
70459;SDS011;57920;54.796;9.430;2022-09-14T13:56:29;4.63;;;1.40;;
70459;SDS011;57920;54.796;9.430;2022-09-14T14:01:31;6.17;;;1.30;;
70459;SDS011;57920;54.796;9.430;2022-09-14T14:04:03;4.27;;;1.53;;
70459;SDS011;57920;54.796;9.430;2022-09-14T14:06:30;7.17;;;1.47;;
70459;SDS011;57920;54.796;9.430;2022-09-14T14:09:08;7.33;;;1.50;;
70459;SDS011;57920;54.796;9.430;2022-09-14T14:11:36;6.77;;;2.00;;
70459;SDS011;57920;54.796;9.430;2022-09-14T14:16:41;3.03;;;1.20;;
70459;SDS011;57920;54.796;9.430;2022-09-14T14:19:27;3.10;;;0.73;;
70459;SDS011;57920;54.796;9.430;2022-09-14T14:24:38;2.57;;;1.13;;
70459;SDS011;57920;54.796;9.430;2022-09-14T14:27:04;3.67;;;1.30;;
70459;SDS011;57920;54.796;9.430;2022-09-14T14:29:30;2.07;;;0.80;;
70459;SDS011;57920;54.796;9.430;2022-09-14T14:31:56;3.13;;;1.07;;
70459;SDS011;57920;54.796;9.430;2022-09-14T14:34:23;1.73;;;0.90;;
70459;SDS011;57920;54.796;9.430;2022-09-14T14:36:53;2.57;;;1.03;;
70459;SDS011;57920;54.796;9.430;2022-09-14T14:39:20;2.53;;;1.07;;
70459;SDS011;57920;54.796;9.430;2022-09-14T14:41:48;6.73;;;1.93;;
70459;SDS011;57920;54.796;9.430;2022-09-14T14:44:16;2.83;;;1.20;;
70459;SDS011;57920;54.796;9.430;2022-09-14T14:46:47;2.57;;;0.83;;
70459;SDS011;57920;54.796;9.430;2022-09-14T14:49:13;4.03;;;1.00;;
70459;SDS011;57920;54.796;9.430;2022-09-14T14:51:41;2.67;;;0.87;;
70459;SDS011;57920;54.796;9.430;2022-09-14T14:54:10;2.10;;;1.07;;
70459;SDS011;57920;54.796;9.430;2022-09-14T14:56:37;2.67;;;1.10;;
70459;SDS011;57920;54.796;9.430;2022-09-14T14:59:13;3.27;;;1.00;;
70459;SDS011;57920;54.796;9.430;2022-09-14T15:01:59;1.83;;;0.80;;
70459;SDS011;57920;54.796;9.430;2022-09-14T15:04:25;2.30;;;1.10;;
70459;SDS011;57920;54.796;9.430;2022-09-14T15:06:51;3.23;;;0.97;;
70459;SDS011;57920;54.796;9.430;2022-09-14T15:09:21;1.10;;;0.50;;
70459;SDS011;57920;54.796;9.430;2022-09-14T15:11:51;1.57;;;1.00;;
70459;SDS011;57920;54.796;9.430;2022-09-14T15:14:21;1.10;;;0.67;;
70459;SDS011;57920;54.796;9.430;2022-09-14T15:16:48;1.60;;;0.77;;
70459;SDS011;57920;54.796;9.430;2022-09-14T15:19:14;1.67;;;0.87;;
70459;SDS011;57920;54.796;9.430;2022-09-14T15:21:41;1.27;;;0.53;;
70459;SDS011;57920;54.796;9.430;2022-09-14T15:24:07;2.83;;;0.90;;
70459;SDS011;57920;54.796;9.430;2022-09-14T15:26:34;2.50;;;1.10;;
70459;SDS011;57920;54.796;9.430;2022-09-14T15:29:00;2.53;;;1.00;;
70459;SDS011;57920;54.796;9.430;2022-09-14T15:31:27;1.90;;;0.80;;
70459;SDS011;57920;54.796;9.430;2022-09-14T15:33:53;0.97;;;0.50;;
70459;SDS011;57920;54.796;9.430;2022-09-14T15:39:07;1.63;;;0.60;;
70459;SDS011;57920;54.796;9.430;2022-09-14T15:41:36;2.00;;;0.80;;
70459;SDS011;57920;54.796;9.430;2022-09-14T15:44:01;1.80;;;0.90;;
70459;SDS011;57920;54.796;9.430;2022-09-14T15:46:28;1.70;;;0.90;;
70459;SDS011;57920;54.796;9.430;2022-09-14T15:48:54;1.83;;;0.70;;
70459;SDS011;57920;54.796;9.430;2022-09-14T15:51:19;2.03;;;0.70;;
70459;SDS011;57920;54.796;9.430;2022-09-14T15:53:45;1.20;;;0.70;;
70459;SDS011;57920;54.796;9.430;2022-09-14T15:56:12;3.40;;;0.87;;
70459;SDS011;57920;54.796;9.430;2022-09-14T15:58:38;1.93;;;1.07;;
70459;SDS011;57920;54.796;9.430;2022-09-14T16:01:07;0.53;;;0.53;;
70459;SDS011;57920;54.796;9.430;2022-09-14T16:03:34;1.20;;;0.63;;
70459;SDS011;57920;54.796;9.430;2022-09-14T16:05:59;0.90;;;0.67;;
70459;SDS011;57920;54.796;9.430;2022-09-14T16:08:25;2.10;;;0.87;;
70459;SDS011;57920;54.796;9.430;2022-09-14T16:11:00;2.20;;;0.83;;
70459;SDS011;57920;54.796;9.430;2022-09-14T16:13:27;0.97;;;0.57;;
70459;SDS011;57920;54.796;9.430;2022-09-14T16:16:03;2.97;;;0.87;;
70459;SDS011;57920;54.796;9.430;2022-09-14T16:18:29;2.40;;;0.93;;
70459;SDS011;57920;54.796;9.430;2022-09-14T16:20:55;1.60;;;0.63;;
70459;SDS011;57920;54.796;9.430;2022-09-14T16:23:26;0.80;;;0.50;;
70459;SDS011;57920;54.796;9.430;2022-09-14T16:25:52;0.80;;;0.80;;
70459;SDS011;57920;54.796;9.430;2022-09-14T16:28:17;0.90;;;0.60;;
70459;SDS011;57920;54.796;9.430;2022-09-14T16:30:43;0.70;;;0.50;;
70459;SDS011;57920;54.796;9.430;2022-09-14T16:33:09;1.13;;;0.60;;
70459;SDS011;57920;54.796;9.430;2022-09-14T16:35:34;2.77;;;0.73;;
70459;SDS011;57920;54.796;9.430;2022-09-14T16:38:00;0.97;;;0.60;;
70459;SDS011;57920;54.796;9.430;2022-09-14T16:40:26;0.97;;;0.70;;
70459;SDS011;57920;54.796;9.430;2022-09-14T16:42:51;1.10;;;0.80;;
70459;SDS011;57920;54.796;9.430;2022-09-14T16:45:17;2.70;;;0.70;;
70459;SDS011;57920;54.796;9.430;2022-09-14T16:47:43;1.37;;;0.63;;
70459;SDS011;57920;54.796;9.430;2022-09-14T16:50:08;1.57;;;0.80;;
70459;SDS011;57920;54.796;9.430;2022-09-14T16:52:34;1.43;;;0.43;;
70459;SDS011;57920;54.796;9.430;2022-09-14T16:54:59;0.77;;;0.60;;
70459;SDS011;57920;54.796;9.430;2022-09-14T16:57:25;0.93;;;0.60;;
70459;SDS011;57920;54.796;9.430;2022-09-14T16:59:53;0.70;;;0.57;;
70459;SDS011;57920;54.796;9.430;2022-09-14T17:02:19;1.17;;;0.60;;
70459;SDS011;57920;54.796;9.430;2022-09-14T17:04:45;0.73;;;0.60;;
70459;SDS011;57920;54.796;9.430;2022-09-14T17:07:10;0.70;;;0.63;;
70459;SDS011;57920;54.796;9.430;2022-09-14T17:09:36;1.20;;;0.60;;
70459;SDS011;57920;54.796;9.430;2022-09-14T17:12:01;2.13;;;0.77;;
70459;SDS011;57920;54.796;9.430;2022-09-14T17:14:28;1.30;;;0.70;;
70459;SDS011;57920;54.796;9.430;2022-09-14T17:16:55;1.77;;;0.57;;
70459;SDS011;57920;54.796;9.430;2022-09-14T17:19:24;1.17;;;0.60;;
70459;SDS011;57920;54.796;9.430;2022-09-14T17:21:51;1.03;;;0.77;;
70459;SDS011;57920;54.796;9.430;2022-09-14T17:24:17;1.37;;;0.47;;
70459;SDS011;57920;54.796;9.430;2022-09-14T17:26:44;1.57;;;0.77;;
70459;SDS011;57920;54.796;9.430;2022-09-14T17:29:10;0.63;;;0.60;;
70459;SDS011;57920;54.796;9.430;2022-09-14T17:31:37;1.20;;;0.60;;
70459;SDS011;57920;54.796;9.430;2022-09-14T17:34:05;0.73;;;0.60;;
70459;SDS011;57920;54.796;9.430;2022-09-14T17:36:31;2.97;;;0.90;;
70459;SDS011;57920;54.796;9.430;2022-09-14T17:38:58;1.20;;;0.73;;
70459;SDS011;57920;54.796;9.430;2022-09-14T17:41:26;0.80;;;0.60;;
70459;SDS011;57920;54.796;9.430;2022-09-14T17:43:55;0.83;;;0.70;;